sensor_id;sensor_type;location;lat;lon;timestamp;P1;durP1;ratioP1;P2;durP2;ratioP2
14740;SDS011;7462;53.530;9.414;2023-01-06T00:02:13;24.97;;;14.57;;
14740;SDS011;7462;53.530;9.414;2023-01-06T00:04:41;27.33;;;14.27;;
14740;SDS011;7462;53.530;9.414;2023-01-06T00:07:09;28.80;;;13.23;;
14740;SDS011;7462;53.530;9.414;2023-01-06T00:09:37;26.77;;;15.30;;
14740;SDS011;7462;53.530;9.414;2023-01-06T00:12:05;24.40;;;13.43;;
14740;SDS011;7462;53.530;9.414;2023-01-06T00:14:34;26.80;;;13.87;;
14740;SDS011;7462;53.530;9.414;2023-01-06T00:17:02;25.20;;;14.97;;
14740;SDS011;7462;53.530;9.414;2023-01-06T00:19:31;30.73;;;15.10;;
14740;SDS011;7462;53.530;9.414;2023-01-06T00:21:59;24.67;;;14.47;;
14740;SDS011;7462;53.530;9.414;2023-01-06T00:24:27;28.17;;;14.23;;
14740;SDS011;7462;53.530;9.414;2023-01-06T00:26:55;23.97;;;14.47;;
14740;SDS011;7462;53.530;9.414;2023-01-06T00:29:23;27.23;;;14.83;;
14740;SDS011;7462;53.530;9.414;2023-01-06T00:31:51;27.87;;;15.43;;
14740;SDS011;7462;53.530;9.414;2023-01-06T00:34:19;30.67;;;14.90;;
14740;SDS011;7462;53.530;9.414;2023-01-06T00:36:49;27.50;;;14.33;;
14740;SDS011;7462;53.530;9.414;2023-01-06T00:39:17;31.67;;;15.17;;
14740;SDS011;7462;53.530;9.414;2023-01-06T00:41:45;29.30;;;15.27;;
14740;SDS011;7462;53.530;9.414;2023-01-06T00:44:32;26.57;;;15.13;;
14740;SDS011;7462;53.530;9.414;2023-01-06T00:47:03;29.47;;;15.67;;
14740;SDS011;7462;53.530;9.414;2023-01-06T00:49:34;29.17;;;16.00;;
14740;SDS011;7462;53.530;9.414;2023-01-06T00:52:05;36.90;;;16.97;;
14740;SDS011;7462;53.530;9.414;2023-01-06T00:54:33;33.43;;;17.30;;
14740;SDS011;7462;53.530;9.414;2023-01-06T00:57:04;36.00;;;17.00;;
14740;SDS011;7462;53.530;9.414;2023-01-06T00:59:32;31.67;;;16.33;;
14740;SDS011;7462;53.530;9.414;2023-01-06T01:02:01;31.27;;;18.07;;
14740;SDS011;7462;53.530;9.414;2023-01-06T01:04:30;31.13;;;17.30;;
14740;SDS011;7462;53.530;9.414;2023-01-06T01:06:58;36.40;;;17.33;;
14740;SDS011;7462;53.530;9.414;2023-01-06T01:09:28;33.90;;;18.60;;
14740;SDS011;7462;53.530;9.414;2023-01-06T01:11:57;35.77;;;19.20;;
14740;SDS011;7462;53.530;9.414;2023-01-06T01:14:42;40.33;;;19.50;;
14740;SDS011;7462;53.530;9.414;2023-01-06T01:17:13;41.13;;;18.77;;
14740;SDS011;7462;53.530;9.414;2023-01-06T01:19:45;42.33;;;20.07;;
14740;SDS011;7462;53.530;9.414;2023-01-06T01:22:13;40.90;;;20.60;;
14740;SDS011;7462;53.530;9.414;2023-01-06T01:24:43;39.97;;;20.47;;
14740;SDS011;7462;53.530;9.414;2023-01-06T01:27:11;39.47;;;20.07;;
14740;SDS011;7462;53.530;9.414;2023-01-06T01:29:40;43.03;;;20.90;;
14740;SDS011;7462;53.530;9.414;2023-01-06T01:32:08;46.77;;;20.10;;
14740;SDS011;7462;53.530;9.414;2023-01-06T01:34:36;40.30;;;19.93;;
14740;SDS011;7462;53.530;9.414;2023-01-06T01:37:05;40.97;;;21.37;;
14740;SDS011;7462;53.530;9.414;2023-01-06T01:39:33;38.87;;;19.87;;
14740;SDS011;7462;53.530;9.414;2023-01-06T01:42:05;40.70;;;20.63;;
14740;SDS011;7462;53.530;9.414;2023-01-06T01:44:50;44.30;;;20.40;;
14740;SDS011;7462;53.530;9.414;2023-01-06T01:47:29;43.13;;;20.50;;
14740;SDS011;7462;53.530;9.414;2023-01-06T01:50:22;41.83;;;19.87;;
14740;SDS011;7462;53.530;9.414;2023-01-06T01:52:55;40.97;;;21.13;;
14740;SDS011;7462;53.530;9.414;2023-01-06T01:55:27;47.03;;;21.67;;
14740;SDS011;7462;53.530;9.414;2023-01-06T01:57:59;41.53;;;21.13;;
14740;SDS011;7462;53.530;9.414;2023-01-06T02:00:30;42.30;;;20.60;;
14740;SDS011;7462;53.530;9.414;2023-01-06T02:02:59;43.70;;;22.23;;
14740;SDS011;7462;53.530;9.414;2023-01-06T02:05:28;39.37;;;20.77;;
14740;SDS011;7462;53.530;9.414;2023-01-06T02:07:57;39.27;;;21.67;;
14740;SDS011;7462;53.530;9.414;2023-01-06T02:10:31;42.77;;;21.67;;
14740;SDS011;7462;53.530;9.414;2023-01-06T02:13:00;39.80;;;20.03;;
14740;SDS011;7462;53.530;9.414;2023-01-06T02:15:29;43.57;;;22.60;;
14740;SDS011;7462;53.530;9.414;2023-01-06T02:18:07;51.20;;;23.63;;
14740;SDS011;7462;53.530;9.414;2023-01-06T02:20:56;42.53;;;21.90;;
14740;SDS011;7462;53.530;9.414;2023-01-06T02:23:46;43.60;;;22.30;;
14740;SDS011;7462;53.530;9.414;2023-01-06T02:29:52;49.30;;;24.90;;
14740;SDS011;7462;53.530;9.414;2023-01-06T02:35:29;50.10;;;26.20;;
14740;SDS011;7462;53.530;9.414;2023-01-06T02:38:16;49.50;;;25.03;;
14740;SDS011;7462;53.530;9.414;2023-01-06T02:40:57;56.33;;;26.77;;
14740;SDS011;7462;53.530;9.414;2023-01-06T02:43:38;49.33;;;26.00;;
14740;SDS011;7462;53.530;9.414;2023-01-06T02:46:21;58.07;;;28.17;;
14740;SDS011;7462;53.530;9.414;2023-01-06T02:48:58;53.97;;;27.23;;
14740;SDS011;7462;53.530;9.414;2023-01-06T02:51:35;55.33;;;28.67;;
14740;SDS011;7462;53.530;9.414;2023-01-06T02:54:13;59.67;;;28.57;;
14740;SDS011;7462;53.530;9.414;2023-01-06T02:56:50;56.57;;;28.40;;
14740;SDS011;7462;53.530;9.414;2023-01-06T02:59:24;61.77;;;29.03;;
14740;SDS011;7462;53.530;9.414;2023-01-06T03:01:57;59.63;;;29.73;;
14740;SDS011;7462;53.530;9.414;2023-01-06T03:04:31;61.13;;;29.23;;
14740;SDS011;7462;53.530;9.414;2023-01-06T03:07:03;60.27;;;29.43;;
14740;SDS011;7462;53.530;9.414;2023-01-06T03:09:36;60.57;;;30.23;;
14740;SDS011;7462;53.530;9.414;2023-01-06T03:12:06;60.27;;;29.40;;
14740;SDS011;7462;53.530;9.414;2023-01-06T03:14:42;69.87;;;31.87;;
14740;SDS011;7462;53.530;9.414;2023-01-06T03:17:13;63.70;;;30.07;;
14740;SDS011;7462;53.530;9.414;2023-01-06T03:19:43;63.73;;;31.40;;
14740;SDS011;7462;53.530;9.414;2023-01-06T03:22:13;64.83;;;31.47;;
14740;SDS011;7462;53.530;9.414;2023-01-06T03:24:43;62.27;;;31.37;;
14740;SDS011;7462;53.530;9.414;2023-01-06T03:27:13;65.00;;;29.10;;
14740;SDS011;7462;53.530;9.414;2023-01-06T03:29:42;63.03;;;31.17;;
14740;SDS011;7462;53.530;9.414;2023-01-06T03:32:16;61.97;;;31.17;;
14740;SDS011;7462;53.530;9.414;2023-01-06T03:34:54;61.57;;;30.43;;
14740;SDS011;7462;53.530;9.414;2023-01-06T03:37:33;67.07;;;30.97;;
14740;SDS011;7462;53.530;9.414;2023-01-06T03:40:12;60.27;;;30.60;;
14740;SDS011;7462;53.530;9.414;2023-01-06T03:42:51;56.33;;;29.23;;
14740;SDS011;7462;53.530;9.414;2023-01-06T03:45:47;57.67;;;29.83;;
14740;SDS011;7462;53.530;9.414;2023-01-06T03:48:31;58.97;;;29.80;;
14740;SDS011;7462;53.530;9.414;2023-01-06T03:51:15;55.07;;;28.70;;
14740;SDS011;7462;53.530;9.414;2023-01-06T03:53:53;56.83;;;31.23;;
14740;SDS011;7462;53.530;9.414;2023-01-06T03:56:30;58.47;;;28.67;;
14740;SDS011;7462;53.530;9.414;2023-01-06T03:59:04;59.07;;;29.00;;
14740;SDS011;7462;53.530;9.414;2023-01-06T04:01:36;54.07;;;28.20;;
14740;SDS011;7462;53.530;9.414;2023-01-06T04:04:07;55.03;;;28.43;;
14740;SDS011;7462;53.530;9.414;2023-01-06T04:06:36;56.33;;;29.37;;
14740;SDS011;7462;53.530;9.414;2023-01-06T04:09:05;54.70;;;29.57;;
14740;SDS011;7462;53.530;9.414;2023-01-06T04:11:34;58.73;;;30.17;;
14740;SDS011;7462;53.530;9.414;2023-01-06T04:14:21;49.77;;;28.77;;
14740;SDS011;7462;53.530;9.414;2023-01-06T04:16:50;53.20;;;29.10;;
14740;SDS011;7462;53.530;9.414;2023-01-06T04:19:19;52.97;;;29.70;;
14740;SDS011;7462;53.530;9.414;2023-01-06T04:21:48;52.57;;;28.97;;
14740;SDS011;7462;53.530;9.414;2023-01-06T04:24:16;53.70;;;27.90;;
14740;SDS011;7462;53.530;9.414;2023-01-06T04:26:45;55.60;;;28.43;;
14740;SDS011;7462;53.530;9.414;2023-01-06T04:29:13;52.63;;;28.47;;
14740;SDS011;7462;53.530;9.414;2023-01-06T04:31:41;59.70;;;36.22;;
14740;SDS011;7462;53.530;9.414;2023-01-06T04:34:09;52.33;;;30.67;;
14740;SDS011;7462;53.530;9.414;2023-01-06T04:36:38;54.33;;;30.00;;
14740;SDS011;7462;53.530;9.414;2023-01-06T04:39:08;54.33;;;29.87;;
14740;SDS011;7462;53.530;9.414;2023-01-06T04:41:36;49.03;;;26.90;;
14740;SDS011;7462;53.530;9.414;2023-01-06T04:44:04;49.00;;;26.10;;
14740;SDS011;7462;53.530;9.414;2023-01-06T04:46:32;48.63;;;28.33;;
14740;SDS011;7462;53.530;9.414;2023-01-06T04:49:00;46.80;;;26.63;;
14740;SDS011;7462;53.530;9.414;2023-01-06T04:51:28;49.80;;;25.47;;
14740;SDS011;7462;53.530;9.414;2023-01-06T04:53:56;50.23;;;28.30;;
14740;SDS011;7462;53.530;9.414;2023-01-06T04:56:25;44.53;;;26.77;;
14740;SDS011;7462;53.530;9.414;2023-01-06T04:58:53;41.67;;;26.50;;
14740;SDS011;7462;53.530;9.414;2023-01-06T05:01:23;45.50;;;26.53;;
14740;SDS011;7462;53.530;9.414;2023-01-06T05:03:52;44.30;;;25.17;;
14740;SDS011;7462;53.530;9.414;2023-01-06T05:06:20;45.30;;;25.50;;
14740;SDS011;7462;53.530;9.414;2023-01-06T05:08:48;44.63;;;25.00;;
14740;SDS011;7462;53.530;9.414;2023-01-06T05:11:17;42.30;;;25.13;;
14740;SDS011;7462;53.530;9.414;2023-01-06T05:13:48;42.10;;;24.60;;
14740;SDS011;7462;53.530;9.414;2023-01-06T05:16:17;39.93;;;25.00;;
14740;SDS011;7462;53.530;9.414;2023-01-06T05:18:47;41.97;;;25.40;;
14740;SDS011;7462;53.530;9.414;2023-01-06T05:21:15;40.00;;;25.20;;
14740;SDS011;7462;53.530;9.414;2023-01-06T05:23:46;42.53;;;23.77;;
14740;SDS011;7462;53.530;9.414;2023-01-06T05:26:15;37.70;;;24.73;;
14740;SDS011;7462;53.530;9.414;2023-01-06T05:28:45;38.23;;;24.57;;
14740;SDS011;7462;53.530;9.414;2023-01-06T05:31:15;41.67;;;25.83;;
14740;SDS011;7462;53.530;9.414;2023-01-06T05:33:44;36.13;;;23.90;;
14740;SDS011;7462;53.530;9.414;2023-01-06T05:36:13;39.90;;;25.63;;
14740;SDS011;7462;53.530;9.414;2023-01-06T05:38:42;39.67;;;24.13;;
14740;SDS011;7462;53.530;9.414;2023-01-06T05:41:11;40.53;;;24.53;;
14740;SDS011;7462;53.530;9.414;2023-01-06T05:43:39;38.93;;;24.90;;
14740;SDS011;7462;53.530;9.414;2023-01-06T05:46:07;42.23;;;25.03;;
14740;SDS011;7462;53.530;9.414;2023-01-06T05:48:38;38.97;;;23.60;;
14740;SDS011;7462;53.530;9.414;2023-01-06T05:51:07;35.77;;;22.40;;
14740;SDS011;7462;53.530;9.414;2023-01-06T05:53:37;37.67;;;24.33;;
14740;SDS011;7462;53.530;9.414;2023-01-06T05:56:07;39.50;;;24.70;;
14740;SDS011;7462;53.530;9.414;2023-01-06T05:58:36;33.67;;;22.77;;
14740;SDS011;7462;53.530;9.414;2023-01-06T06:01:13;33.03;;;22.30;;
14740;SDS011;7462;53.530;9.414;2023-01-06T06:03:43;33.83;;;21.90;;
14740;SDS011;7462;53.530;9.414;2023-01-06T06:06:12;35.03;;;23.30;;
14740;SDS011;7462;53.530;9.414;2023-01-06T06:08:40;34.13;;;22.67;;
14740;SDS011;7462;53.530;9.414;2023-01-06T06:11:09;35.90;;;23.13;;
14740;SDS011;7462;53.530;9.414;2023-01-06T06:13:38;35.13;;;22.73;;
14740;SDS011;7462;53.530;9.414;2023-01-06T06:16:12;34.53;;;23.03;;
14740;SDS011;7462;53.530;9.414;2023-01-06T06:18:41;30.47;;;22.77;;
14740;SDS011;7462;53.530;9.414;2023-01-06T06:21:11;32.40;;;22.80;;
14740;SDS011;7462;53.530;9.414;2023-01-06T06:23:40;30.33;;;22.33;;
14740;SDS011;7462;53.530;9.414;2023-01-06T06:26:09;36.40;;;24.13;;
14740;SDS011;7462;53.530;9.414;2023-01-06T06:28:38;38.03;;;26.57;;
14740;SDS011;7462;53.530;9.414;2023-01-06T06:31:07;38.40;;;24.50;;
14740;SDS011;7462;53.530;9.414;2023-01-06T06:33:36;35.47;;;25.13;;
14740;SDS011;7462;53.530;9.414;2023-01-06T06:36:05;32.00;;;23.87;;
14740;SDS011;7462;53.530;9.414;2023-01-06T06:38:38;32.37;;;24.47;;
14740;SDS011;7462;53.530;9.414;2023-01-06T06:41:06;37.73;;;24.23;;
14740;SDS011;7462;53.530;9.414;2023-01-06T06:43:34;33.57;;;23.67;;
14740;SDS011;7462;53.530;9.414;2023-01-06T06:46:02;41.23;;;29.97;;
14740;SDS011;7462;53.530;9.414;2023-01-06T06:48:31;38.63;;;27.37;;
14740;SDS011;7462;53.530;9.414;2023-01-06T06:50:59;42.63;;;30.80;;
14740;SDS011;7462;53.530;9.414;2023-01-06T06:53:28;37.87;;;27.63;;
14740;SDS011;7462;53.530;9.414;2023-01-06T06:55:59;33.47;;;24.87;;
14740;SDS011;7462;53.530;9.414;2023-01-06T06:58:27;32.33;;;24.17;;
14740;SDS011;7462;53.530;9.414;2023-01-06T07:00:55;32.07;;;23.40;;
14740;SDS011;7462;53.530;9.414;2023-01-06T07:03:24;25.93;;;20.47;;
14740;SDS011;7462;53.530;9.414;2023-01-06T07:05:52;29.87;;;22.07;;
14740;SDS011;7462;53.530;9.414;2023-01-06T07:08:20;27.97;;;20.97;;
14740;SDS011;7462;53.530;9.414;2023-01-06T07:10:48;29.07;;;20.50;;
14740;SDS011;7462;53.530;9.414;2023-01-06T07:13:18;28.97;;;21.70;;
14740;SDS011;7462;53.530;9.414;2023-01-06T07:15:46;27.53;;;20.80;;
14740;SDS011;7462;53.530;9.414;2023-01-06T07:18:14;25.77;;;20.83;;
14740;SDS011;7462;53.530;9.414;2023-01-06T07:20:45;25.40;;;20.10;;
14740;SDS011;7462;53.530;9.414;2023-01-06T07:23:15;24.67;;;19.23;;
14740;SDS011;7462;53.530;9.414;2023-01-06T07:25:43;23.33;;;18.53;;
14740;SDS011;7462;53.530;9.414;2023-01-06T07:28:11;25.27;;;19.53;;
14740;SDS011;7462;53.530;9.414;2023-01-06T07:30:40;27.53;;;18.83;;
14740;SDS011;7462;53.530;9.414;2023-01-06T07:33:08;23.17;;;18.27;;
14740;SDS011;7462;53.530;9.414;2023-01-06T07:35:36;20.57;;;16.53;;
14740;SDS011;7462;53.530;9.414;2023-01-06T07:38:05;22.07;;;17.47;;
14740;SDS011;7462;53.530;9.414;2023-01-06T07:40:34;20.80;;;16.37;;
14740;SDS011;7462;53.530;9.414;2023-01-06T07:43:03;24.13;;;17.43;;
14740;SDS011;7462;53.530;9.414;2023-01-06T07:45:32;20.67;;;16.33;;
14740;SDS011;7462;53.530;9.414;2023-01-06T07:48:02;21.30;;;17.37;;
14740;SDS011;7462;53.530;9.414;2023-01-06T07:50:30;20.47;;;17.07;;
14740;SDS011;7462;53.530;9.414;2023-01-06T07:52:59;19.20;;;15.13;;
14740;SDS011;7462;53.530;9.414;2023-01-06T07:55:28;20.57;;;15.33;;
14740;SDS011;7462;53.530;9.414;2023-01-06T07:57:56;20.80;;;15.20;;
14740;SDS011;7462;53.530;9.414;2023-01-06T08:00:25;24.63;;;14.33;;
14740;SDS011;7462;53.530;9.414;2023-01-06T08:02:53;17.03;;;14.20;;
14740;SDS011;7462;53.530;9.414;2023-01-06T08:05:22;17.90;;;15.00;;
14740;SDS011;7462;53.530;9.414;2023-01-06T08:07:50;18.47;;;13.90;;
14740;SDS011;7462;53.530;9.414;2023-01-06T08:10:18;17.10;;;12.97;;
14740;SDS011;7462;53.530;9.414;2023-01-06T08:12:46;16.67;;;14.00;;
14740;SDS011;7462;53.530;9.414;2023-01-06T08:15:14;16.47;;;13.33;;
14740;SDS011;7462;53.530;9.414;2023-01-06T08:17:42;15.57;;;12.73;;
14740;SDS011;7462;53.530;9.414;2023-01-06T08:20:10;13.87;;;12.37;;
14740;SDS011;7462;53.530;9.414;2023-01-06T08:22:39;14.03;;;11.97;;
14740;SDS011;7462;53.530;9.414;2023-01-06T08:25:08;18.80;;;12.13;;
14740;SDS011;7462;53.530;9.414;2023-01-06T08:27:36;13.77;;;11.87;;
14740;SDS011;7462;53.530;9.414;2023-01-06T08:30:05;14.03;;;11.00;;
14740;SDS011;7462;53.530;9.414;2023-01-06T08:32:34;12.27;;;10.40;;
14740;SDS011;7462;53.530;9.414;2023-01-06T08:35:02;13.80;;;10.00;;
14740;SDS011;7462;53.530;9.414;2023-01-06T08:37:30;12.13;;;9.70;;
14740;SDS011;7462;53.530;9.414;2023-01-06T08:40:00;10.90;;;9.57;;
14740;SDS011;7462;53.530;9.414;2023-01-06T08:42:28;11.07;;;9.33;;
14740;SDS011;7462;53.530;9.414;2023-01-06T08:44:56;10.47;;;9.13;;
14740;SDS011;7462;53.530;9.414;2023-01-06T08:47:24;11.63;;;7.80;;
14740;SDS011;7462;53.530;9.414;2023-01-06T08:49:52;10.70;;;7.90;;
14740;SDS011;7462;53.530;9.414;2023-01-06T08:52:20;8.50;;;7.60;;
14740;SDS011;7462;53.530;9.414;2023-01-06T08:54:48;7.80;;;7.10;;
14740;SDS011;7462;53.530;9.414;2023-01-06T08:57:18;11.57;;;7.57;;
14740;SDS011;7462;53.530;9.414;2023-01-06T08:59:46;7.60;;;6.50;;
14740;SDS011;7462;53.530;9.414;2023-01-06T09:02:14;7.80;;;6.53;;
14740;SDS011;7462;53.530;9.414;2023-01-06T09:04:42;8.00;;;6.40;;
14740;SDS011;7462;53.530;9.414;2023-01-06T09:07:10;8.27;;;6.17;;
14740;SDS011;7462;53.530;9.414;2023-01-06T09:09:38;8.27;;;5.67;;
14740;SDS011;7462;53.530;9.414;2023-01-06T09:12:06;7.10;;;5.27;;
14740;SDS011;7462;53.530;9.414;2023-01-06T09:14:35;8.07;;;5.47;;
14740;SDS011;7462;53.530;9.414;2023-01-06T09:17:04;6.03;;;5.43;;
14740;SDS011;7462;53.530;9.414;2023-01-06T09:19:32;8.70;;;5.40;;
14740;SDS011;7462;53.530;9.414;2023-01-06T09:22:00;7.17;;;5.07;;
14740;SDS011;7462;53.530;9.414;2023-01-06T09:24:28;6.23;;;5.63;;
14740;SDS011;7462;53.530;9.414;2023-01-06T09:26:56;6.03;;;5.00;;
14740;SDS011;7462;53.530;9.414;2023-01-06T09:29:24;6.93;;;5.67;;
14740;SDS011;7462;53.530;9.414;2023-01-06T09:31:54;6.73;;;6.00;;
14740;SDS011;7462;53.530;9.414;2023-01-06T09:34:22;9.13;;;5.57;;
14740;SDS011;7462;53.530;9.414;2023-01-06T09:36:50;7.80;;;5.10;;
14740;SDS011;7462;53.530;9.414;2023-01-06T09:39:18;7.43;;;5.50;;
14740;SDS011;7462;53.530;9.414;2023-01-06T09:41:56;7.30;;;5.67;;
14740;SDS011;7462;53.530;9.414;2023-01-06T09:45:00;6.50;;;5.87;;
14740;SDS011;7462;53.530;9.414;2023-01-06T09:47:32;7.23;;;5.57;;
14740;SDS011;7462;53.530;9.414;2023-01-06T09:50:05;6.53;;;5.87;;
14740;SDS011;7462;53.530;9.414;2023-01-06T09:52:36;7.23;;;5.80;;
14740;SDS011;7462;53.530;9.414;2023-01-06T09:55:10;7.83;;;6.00;;
14740;SDS011;7462;53.530;9.414;2023-01-06T09:57:44;6.77;;;6.07;;
14740;SDS011;7462;53.530;9.414;2023-01-06T10:00:18;6.63;;;5.93;;
14740;SDS011;7462;53.530;9.414;2023-01-06T10:02:58;6.30;;;5.70;;
14740;SDS011;7462;53.530;9.414;2023-01-06T10:05:27;6.20;;;5.33;;
14740;SDS011;7462;53.530;9.414;2023-01-06T10:08:06;6.90;;;5.30;;
14740;SDS011;7462;53.530;9.414;2023-01-06T10:10:39;6.80;;;5.00;;
14740;SDS011;7462;53.530;9.414;2023-01-06T10:13:23;6.20;;;5.70;;
14740;SDS011;7462;53.530;9.414;2023-01-06T10:16:02;6.27;;;5.40;;
14740;SDS011;7462;53.530;9.414;2023-01-06T10:18:42;5.80;;;5.30;;
14740;SDS011;7462;53.530;9.414;2023-01-06T10:21:22;6.23;;;4.87;;
14740;SDS011;7462;53.530;9.414;2023-01-06T10:24:01;6.57;;;4.50;;
14740;SDS011;7462;53.530;9.414;2023-01-06T10:26:44;5.17;;;4.50;;
14740;SDS011;7462;53.530;9.414;2023-01-06T10:29:17;5.10;;;4.60;;
14740;SDS011;7462;53.530;9.414;2023-01-06T10:31:46;5.10;;;4.07;;
14740;SDS011;7462;53.530;9.414;2023-01-06T10:34:20;4.50;;;4.10;;
14740;SDS011;7462;53.530;9.414;2023-01-06T10:36:51;3.80;;;3.40;;
14740;SDS011;7462;53.530;9.414;2023-01-06T10:39:23;3.80;;;3.50;;
14740;SDS011;7462;53.530;9.414;2023-01-06T10:41:55;4.90;;;3.80;;
14740;SDS011;7462;53.530;9.414;2023-01-06T10:44:43;3.10;;;2.80;;
14740;SDS011;7462;53.530;9.414;2023-01-06T10:47:13;3.37;;;2.70;;
14740;SDS011;7462;53.530;9.414;2023-01-06T10:49:45;4.33;;;2.50;;
14740;SDS011;7462;53.530;9.414;2023-01-06T10:52:13;2.47;;;2.23;;
14740;SDS011;7462;53.530;9.414;2023-01-06T10:54:41;2.00;;;1.83;;
14740;SDS011;7462;53.530;9.414;2023-01-06T10:57:10;1.83;;;1.50;;
14740;SDS011;7462;53.530;9.414;2023-01-06T11:02:42;3.73;;;1.73;;
14740;SDS011;7462;53.530;9.414;2023-01-06T11:05:13;2.57;;;1.70;;
14740;SDS011;7462;53.530;9.414;2023-01-06T11:07:47;1.60;;;1.50;;
14740;SDS011;7462;53.530;9.414;2023-01-06T11:10:24;1.57;;;1.47;;
14740;SDS011;7462;53.530;9.414;2023-01-06T11:12:55;2.67;;;1.37;;
14740;SDS011;7462;53.530;9.414;2023-01-06T11:15:34;3.93;;;1.50;;
14740;SDS011;7462;53.530;9.414;2023-01-06T11:18:14;2.47;;;1.20;;
14740;SDS011;7462;53.530;9.414;2023-01-06T11:20:48;2.77;;;1.20;;
14740;SDS011;7462;53.530;9.414;2023-01-06T11:23:32;2.60;;;1.10;;
14740;SDS011;7462;53.530;9.414;2023-01-06T11:26:05;3.47;;;1.00;;
14740;SDS011;7462;53.530;9.414;2023-01-06T11:28:40;2.33;;;0.90;;
14740;SDS011;7462;53.530;9.414;2023-01-06T11:31:09;3.03;;;0.93;;
14740;SDS011;7462;53.530;9.414;2023-01-06T11:33:46;2.73;;;1.00;;
14740;SDS011;7462;53.530;9.414;2023-01-06T11:36:19;2.60;;;0.80;;
14740;SDS011;7462;53.530;9.414;2023-01-06T11:38:49;4.57;;;1.10;;
14740;SDS011;7462;53.530;9.414;2023-01-06T11:41:20;3.53;;;0.97;;
14740;SDS011;7462;53.530;9.414;2023-01-06T11:43:53;3.20;;;0.90;;
14740;SDS011;7462;53.530;9.414;2023-01-06T11:46:23;3.93;;;0.97;;
14740;SDS011;7462;53.530;9.414;2023-01-06T11:48:55;1.57;;;0.80;;
14740;SDS011;7462;53.530;9.414;2023-01-06T11:51:45;3.57;;;1.30;;
14740;SDS011;7462;53.530;9.414;2023-01-06T11:54:30;4.90;;;1.00;;
14740;SDS011;7462;53.530;9.414;2023-01-06T11:57:18;1.20;;;0.97;;
14740;SDS011;7462;53.530;9.414;2023-01-06T12:02:54;2.80;;;0.90;;
14740;SDS011;7462;53.530;9.414;2023-01-06T12:05:34;4.57;;;0.97;;
14740;SDS011;7462;53.530;9.414;2023-01-06T12:08:13;5.00;;;0.80;;
14740;SDS011;7462;53.530;9.414;2023-01-06T12:10:47;4.37;;;0.97;;
14740;SDS011;7462;53.530;9.414;2023-01-06T12:13:23;4.53;;;1.23;;
14740;SDS011;7462;53.530;9.414;2023-01-06T12:15:55;4.87;;;1.10;;
14740;SDS011;7462;53.530;9.414;2023-01-06T12:18:28;5.50;;;1.13;;
14740;SDS011;7462;53.530;9.414;2023-01-06T12:20:59;5.90;;;1.53;;
14740;SDS011;7462;53.530;9.414;2023-01-06T12:23:31;3.00;;;0.90;;
14740;SDS011;7462;53.530;9.414;2023-01-06T12:26:02;3.33;;;1.20;;
14740;SDS011;7462;53.530;9.414;2023-01-06T12:28:35;4.57;;;1.00;;
14740;SDS011;7462;53.530;9.414;2023-01-06T12:31:06;3.60;;;1.10;;
14740;SDS011;7462;53.530;9.414;2023-01-06T12:33:37;3.53;;;1.20;;
14740;SDS011;7462;53.530;9.414;2023-01-06T12:36:09;8.37;;;1.23;;
14740;SDS011;7462;53.530;9.414;2023-01-06T12:38:44;4.00;;;1.10;;
14740;SDS011;7462;53.530;9.414;2023-01-06T12:41:19;6.00;;;1.20;;
14740;SDS011;7462;53.530;9.414;2023-01-06T12:43:53;5.83;;;1.40;;
14740;SDS011;7462;53.530;9.414;2023-01-06T12:46:28;5.17;;;1.10;;
14740;SDS011;7462;53.530;9.414;2023-01-06T12:49:02;4.50;;;1.10;;
14740;SDS011;7462;53.530;9.414;2023-01-06T12:51:35;6.13;;;1.30;;
14740;SDS011;7462;53.530;9.414;2023-01-06T12:54:10;5.23;;;1.00;;
14740;SDS011;7462;53.530;9.414;2023-01-06T12:56:49;5.87;;;1.13;;
14740;SDS011;7462;53.530;9.414;2023-01-06T12:59:27;7.90;;;1.70;;
14740;SDS011;7462;53.530;9.414;2023-01-06T13:02:06;6.93;;;1.37;;
14740;SDS011;7462;53.530;9.414;2023-01-06T13:04:47;7.80;;;1.23;;
14740;SDS011;7462;53.530;9.414;2023-01-06T13:07:34;4.00;;;1.23;;
14740;SDS011;7462;53.530;9.414;2023-01-06T13:10:17;6.53;;;1.33;;
14740;SDS011;7462;53.530;9.414;2023-01-06T13:12:55;5.07;;;1.20;;
14740;SDS011;7462;53.530;9.414;2023-01-06T13:15:34;4.70;;;1.93;;
14740;SDS011;7462;53.530;9.414;2023-01-06T13:18:09;5.87;;;1.40;;
14740;SDS011;7462;53.530;9.414;2023-01-06T13:20:41;5.80;;;1.40;;
14740;SDS011;7462;53.530;9.414;2023-01-06T13:23:15;6.53;;;1.10;;
14740;SDS011;7462;53.530;9.414;2023-01-06T13:29:23;3.37;;;1.10;;
14740;SDS011;7462;53.530;9.414;2023-01-06T13:32:07;3.40;;;0.90;;
14740;SDS011;7462;53.530;9.414;2023-01-06T13:35:08;4.50;;;1.03;;
14740;SDS011;7462;53.530;9.414;2023-01-06T13:37:52;7.07;;;1.43;;
14740;SDS011;7462;53.530;9.414;2023-01-06T13:40:29;5.40;;;1.53;;
14740;SDS011;7462;53.530;9.414;2023-01-06T13:43:03;9.93;;;1.30;;
14740;SDS011;7462;53.530;9.414;2023-01-06T13:45:36;7.87;;;1.30;;
14740;SDS011;7462;53.530;9.414;2023-01-06T13:48:08;5.33;;;1.30;;
14740;SDS011;7462;53.530;9.414;2023-01-06T13:50:41;5.67;;;1.33;;
14740;SDS011;7462;53.530;9.414;2023-01-06T13:53:12;4.43;;;1.23;;
14740;SDS011;7462;53.530;9.414;2023-01-06T13:55:43;5.70;;;1.30;;
14740;SDS011;7462;53.530;9.414;2023-01-06T13:58:33;10.97;;;1.77;;
14740;SDS011;7462;53.530;9.414;2023-01-06T14:01:07;4.13;;;1.23;;
14740;SDS011;7462;53.530;9.414;2023-01-06T14:03:37;8.87;;;1.57;;
14740;SDS011;7462;53.530;9.414;2023-01-06T14:06:08;7.03;;;1.20;;
14740;SDS011;7462;53.530;9.414;2023-01-06T14:08:39;3.43;;;1.10;;
14740;SDS011;7462;53.530;9.414;2023-01-06T14:11:19;7.33;;;1.60;;
14740;SDS011;7462;53.530;9.414;2023-01-06T14:13:53;7.30;;;1.63;;
14740;SDS011;7462;53.530;9.414;2023-01-06T14:16:36;7.43;;;1.60;;
14740;SDS011;7462;53.530;9.414;2023-01-06T14:19:06;4.00;;;1.40;;
14740;SDS011;7462;53.530;9.414;2023-01-06T14:21:41;7.77;;;1.40;;
14740;SDS011;7462;53.530;9.414;2023-01-06T14:24:17;4.10;;;1.30;;
14740;SDS011;7462;53.530;9.414;2023-01-06T14:26:53;7.37;;;1.30;;
14740;SDS011;7462;53.530;9.414;2023-01-06T14:35:31;5.97;;;1.50;;
14740;SDS011;7462;53.530;9.414;2023-01-06T14:38:03;5.00;;;1.20;;
14740;SDS011;7462;53.530;9.414;2023-01-06T14:40:35;7.43;;;1.37;;
14740;SDS011;7462;53.530;9.414;2023-01-06T14:43:20;4.37;;;1.23;;
14740;SDS011;7462;53.530;9.414;2023-01-06T14:45:56;5.53;;;1.10;;
14740;SDS011;7462;53.530;9.414;2023-01-06T14:48:29;5.53;;;1.43;;
14740;SDS011;7462;53.530;9.414;2023-01-06T14:51:00;9.50;;;1.80;;
14740;SDS011;7462;53.530;9.414;2023-01-06T14:53:28;5.53;;;1.27;;
14740;SDS011;7462;53.530;9.414;2023-01-06T14:55:59;7.07;;;1.40;;
14740;SDS011;7462;53.530;9.414;2023-01-06T14:58:28;6.30;;;1.10;;
14740;SDS011;7462;53.530;9.414;2023-01-06T15:00:58;7.70;;;1.50;;
14740;SDS011;7462;53.530;9.414;2023-01-06T15:03:29;6.43;;;1.07;;
14740;SDS011;7462;53.530;9.414;2023-01-06T15:06:08;4.90;;;1.40;;
14740;SDS011;7462;53.530;9.414;2023-01-06T15:08:37;6.60;;;1.73;;
14740;SDS011;7462;53.530;9.414;2023-01-06T15:11:17;6.90;;;1.50;;
14740;SDS011;7462;53.530;9.414;2023-01-06T15:13:49;7.53;;;1.60;;
14740;SDS011;7462;53.530;9.414;2023-01-06T15:16:18;7.53;;;1.63;;
14740;SDS011;7462;53.530;9.414;2023-01-06T15:18:54;7.03;;;1.63;;
14740;SDS011;7462;53.530;9.414;2023-01-06T15:21:22;6.97;;;1.80;;
14740;SDS011;7462;53.530;9.414;2023-01-06T15:23:51;4.70;;;1.53;;
14740;SDS011;7462;53.530;9.414;2023-01-06T15:26:22;9.53;;;1.80;;
14740;SDS011;7462;53.530;9.414;2023-01-06T15:28:56;9.10;;;1.73;;
14740;SDS011;7462;53.530;9.414;2023-01-06T15:31:29;4.47;;;1.30;;
14740;SDS011;7462;53.530;9.414;2023-01-06T15:34:02;6.83;;;1.33;;
14740;SDS011;7462;53.530;9.414;2023-01-06T15:36:34;2.50;;;1.30;;
14740;SDS011;7462;53.530;9.414;2023-01-06T15:39:05;4.90;;;1.20;;